createdAt,value
2023-01-23T00:02:15.949Z,102014.25
2023-01-23T00:04:43.429Z,102011.95
2023-01-23T00:07:13.728Z,102012.44
2023-01-23T00:09:40.539Z,102013.15
2023-01-23T00:12:08.364Z,102014.91
2023-01-23T00:14:45.478Z,102013.63
2023-01-23T00:17:29.578Z,102015.82
2023-01-23T00:20:27.491Z,102012.38
2023-01-23T00:23:01.319Z,102006.33
2023-01-23T00:25:58.381Z,102005.53
2023-01-23T00:32:38.383Z,102006.50
2023-01-23T00:35:10.166Z,102006.54
2023-01-23T00:37:37.009Z,102010.90
2023-01-23T00:40:04.220Z,102016.39
2023-01-23T00:42:31.805Z,102016.98
2023-01-23T00:45:00.257Z,102018.95
2023-01-23T00:50:09.471Z,102014.09
2023-01-23T00:52:38.514Z,102019.18
2023-01-23T00:55:05.783Z,102021.11
2023-01-23T00:57:35.049Z,102013.79
2023-01-23T01:00:04.127Z,102016.38
2023-01-23T01:02:31.677Z,102012.96
2023-01-23T01:04:58.408Z,102015.54
2023-01-23T01:07:31.017Z,102015.97
2023-01-23T01:09:57.955Z,102012.83
2023-01-23T01:12:25.939Z,102012.52
2023-01-23T01:14:52.896Z,102015.44
2023-01-23T01:17:19.740Z,102014.15
2023-01-23T01:19:47.991Z,102016.45
2023-01-23T01:22:14.556Z,102013.42
2023-01-23T01:24:41.806Z,102014.20
2023-01-23T01:27:08.521Z,102013.83
2023-01-23T01:29:35.278Z,102012.97
2023-01-23T01:32:01.969Z,102015.64
2023-01-23T01:34:28.729Z,102013.14
2023-01-23T01:36:55.392Z,102011.20
2023-01-23T01:39:22.075Z,102007.23
2023-01-23T01:41:48.685Z,102007.03
2023-01-23T01:44:21.473Z,102005.05
2023-01-23T01:46:48.542Z,102002.51
2023-01-23T01:49:20.739Z,102001.81
2023-01-23T01:51:52.982Z,102000.92
2023-01-23T01:54:19.647Z,102001.09
2023-01-23T01:57:07.710Z,101999.69
2023-01-23T01:59:44.945Z,101997.65
2023-01-23T02:02:14.046Z,101994.73
2023-01-23T04:06:52.455Z,102040.36
2023-01-23T04:09:26.411Z,102037.29
2023-01-23T04:11:57.851Z,102037.21
2023-01-23T04:14:50.203Z,102039.44
2023-01-23T04:17:18.285Z,102034.45
2023-01-23T04:19:45.521Z,102034.16
2023-01-23T04:22:13.248Z,102030.53
2023-01-23T04:24:46.605Z,102033.56
2023-01-23T04:27:20.240Z,102036.90
2023-01-23T04:29:54.337Z,102034.99
2023-01-23T04:32:24.903Z,102041.70
2023-01-23T04:34:52.832Z,102041.46
2023-01-23T04:37:19.675Z,102041.77
2023-01-23T04:39:46.574Z,102043.80
2023-01-23T04:42:14.966Z,102045.77
2023-01-23T04:45:05.596Z,102047.16
2023-01-23T04:47:47.616Z,102045.70
2023-01-23T04:50:15.319Z,102043.91
2023-01-23T04:52:44.402Z,102045.45
2023-01-23T04:55:17.031Z,102046.73
2023-01-23T04:57:53.517Z,102049.76
2023-01-23T05:00:29.741Z,102053.39
2023-01-23T05:02:58.447Z,102054.30
2023-01-23T05:05:27.155Z,102050.91
2023-01-23T05:07:58.221Z,102054.92
2023-01-23T05:10:33.721Z,102056.36
2023-01-23T05:13:13.912Z,102053.72
2023-01-23T05:15:55.179Z,102060.20
2023-01-23T05:18:22.340Z,102064.89
2023-01-23T05:21:30.162Z,102072.21
2023-01-23T05:24:04.185Z,102077.80
2023-01-23T05:26:32.669Z,102078.85
2023-01-23T05:29:02.882Z,102082.06
2023-01-23T05:31:32.018Z,102080.16
2023-01-23T05:35:03.880Z,102080.61
2023-01-23T05:37:36.483Z,102085.65
2023-01-23T05:40:08.981Z,102086.06
2023-01-23T05:42:56.239Z,102088.39
2023-01-23T05:45:46.502Z,102084.33
2023-01-23T05:48:27.205Z,102086.26
2023-01-23T05:50:54.631Z,102086.29
2023-01-23T05:53:23.476Z,102087.30
2023-01-23T05:55:50.357Z,102086.48
2023-01-23T05:58:17.494Z,102091.41
2023-01-23T06:01:05.612Z,102091.61
2023-01-23T06:03:51.928Z,102094.48
2023-01-23T06:06:34.432Z,102099.48
2023-01-23T06:09:01.509Z,102098.80
2023-01-23T06:11:43.557Z,102099.24
2023-01-23T06:14:11.120Z,102100.82
2023-01-23T06:16:38.023Z,102103.40
2023-01-23T06:19:05.395Z,102105.73
2023-01-23T06:21:33.692Z,102106.20
2023-01-23T06:24:03.335Z,102106.89
2023-01-23T06:26:30.456Z,102108.20
2023-01-23T06:28:59.319Z,102110.15
2023-01-23T06:31:26.448Z,102113.35
2023-01-23T06:33:54.510Z,102112.20
2023-01-23T06:36:26.724Z,102114.41
2023-01-23T06:38:53.932Z,102114.75
2023-01-23T06:41:24.906Z,102118.12
2023-01-23T06:43:58.790Z,102115.95
2023-01-23T06:46:35.864Z,102116.55
2023-01-23T06:49:06.130Z,102117.77
2023-01-23T06:51:36.464Z,102121.60
2023-01-23T06:54:03.730Z,102127.64
2023-01-23T06:56:31.115Z,102126.73
2023-01-23T06:58:58.849Z,102130.92
2023-01-23T07:01:30.001Z,102126.41
2023-01-23T07:04:16.103Z,102130.82
2023-01-23T07:06:44.233Z,102131.42
2023-01-23T07:09:11.958Z,102135.37
2023-01-23T07:11:40.152Z,102139.91
2023-01-23T07:14:07.219Z,102141.09
2023-01-23T07:16:36.018Z,102140.52
2023-01-23T07:19:05.702Z,102142.41
2023-01-23T07:21:34.644Z,102142.33
2023-01-23T07:24:02.675Z,102143.16
2023-01-23T07:26:30.684Z,102144.20
2023-01-23T07:28:58.935Z,102142.00
2023-01-23T07:31:28.930Z,102146.89
2023-01-23T07:33:55.971Z,102146.90
2023-01-23T07:36:26.975Z,102147.44
2023-01-23T07:38:53.829Z,102148.95
2023-01-23T07:41:22.432Z,102150.56
2023-01-23T07:43:49.655Z,102151.89
2023-01-23T07:46:17.078Z,102156.11
2023-01-23T07:48:44.068Z,102161.23
2023-01-23T07:51:17.407Z,102160.98
2023-01-23T07:53:44.234Z,102163.78
2023-01-23T07:56:11.082Z,102164.00
2023-01-23T07:58:38.444Z,102166.88
2023-01-23T08:01:12.612Z,102162.45
2023-01-23T08:03:40.711Z,102169.98
2023-01-23T08:06:08.964Z,102171.25
2023-01-23T08:08:37.798Z,102172.19
2023-01-23T08:11:19.524Z,102174.28
2023-01-23T08:13:52.749Z,102176.89
2023-01-23T08:16:22.167Z,102179.10
2023-01-23T08:18:49.257Z,102179.66
2023-01-23T08:21:17.756Z,102182.88
2023-01-23T08:23:46.480Z,102185.31
2023-01-23T08:26:15.869Z,102189.90
2023-01-23T08:28:43.180Z,102187.71
2023-01-23T08:31:11.433Z,102190.60
2023-01-23T08:33:39.184Z,102190.42
2023-01-23T08:36:06.667Z,102192.67
2023-01-23T08:38:33.786Z,102188.45
2023-01-23T08:41:01.491Z,102182.65
2023-01-23T08:43:29.043Z,102188.44
2023-01-23T08:45:56.967Z,102184.45
2023-01-23T08:48:24.955Z,102186.36
2023-01-23T08:51:01.063Z,102186.45
2023-01-23T08:53:28.909Z,102185.15
2023-01-23T08:56:01.286Z,102186.56
2023-01-23T08:58:28.536Z,102184.92
2023-01-23T09:00:55.770Z,102184.54
2023-01-23T09:03:22.592Z,102185.70
2023-01-23T09:05:49.543Z,102182.50
2023-01-23T09:08:53.273Z,102187.05
2023-01-23T09:11:23.473Z,102186.14
2023-01-23T09:13:52.980Z,102182.14
2023-01-23T09:16:23.191Z,102180.07
2023-01-23T09:18:50.444Z,102181.98
2023-01-23T09:21:17.486Z,102186.48
2023-01-23T09:23:44.995Z,102186.15
2023-01-23T09:26:13.861Z,102184.01
2023-01-23T09:28:45.389Z,102186.36
2023-01-23T09:31:13.519Z,102186.96
2023-01-23T09:33:41.196Z,102185.03
2023-01-23T09:36:08.858Z,102184.92
2023-01-23T09:38:35.961Z,102180.66
2023-01-23T09:41:17.847Z,102182.08
2023-01-23T09:43:50.562Z,102177.91
2023-01-23T09:46:22.297Z,102177.52
2023-01-23T09:49:10.107Z,102182.30
2023-01-23T09:51:48.419Z,102181.98
2023-01-23T09:54:36.195Z,102183.92
2023-01-23T14:22:00.440Z,102162.79
2023-01-23T14:24:48.145Z,102165.38
2023-01-23T14:27:36.790Z,102163.28
2023-01-23T14:30:25.810Z,102160.66
2023-01-23T14:32:52.572Z,102160.46
2023-01-23T14:35:25.291Z,102159.52
2023-01-23T14:37:53.179Z,102159.98
2023-01-23T14:40:27.052Z,102160.02
2023-01-23T14:43:07.154Z,102159.90
2023-01-23T14:45:34.314Z,102166.02
2023-01-23T14:48:08.480Z,102164.80
2023-01-23T14:50:36.004Z,102165.23
2023-01-23T14:53:11.107Z,102167.32
2023-01-23T14:55:40.099Z,102166.13
2023-01-23T14:58:07.121Z,102162.32
2023-01-23T15:00:34.199Z,102160.27
2023-01-23T15:03:03.720Z,102162.25
2023-01-23T15:05:32.244Z,102161.80
2023-01-23T15:08:23.870Z,102161.55
2023-01-23T15:10:50.410Z,102161.02
2023-01-23T15:13:25.330Z,102165.16
2023-01-23T15:16:00.967Z,102166.06
2023-01-23T15:18:38.165Z,102170.58
2023-01-23T15:21:08.276Z,102170.75
2023-01-23T15:23:36.892Z,102173.91
2023-01-23T15:26:19.262Z,102173.79
2023-01-23T15:29:17.455Z,102177.66
2023-01-23T15:31:51.425Z,102177.77
2023-01-23T15:34:19.931Z,102179.91
2023-01-23T15:37:27.435Z,102177.23
2023-01-23T15:40:03.815Z,102179.86
2023-01-23T15:42:32.568Z,102181.66
2023-01-23T15:45:03.419Z,102184.20
2023-01-23T15:47:31.183Z,102182.98
2023-01-23T15:50:02.549Z,102184.91
2023-01-23T15:52:31.112Z,102183.59
2023-01-23T15:55:04.316Z,102188.61
2023-01-23T15:57:31.476Z,102191.02
2023-01-23T15:59:59.831Z,102188.55
2023-01-23T16:02:32.356Z,102189.70
2023-01-23T16:05:02.342Z,102189.64
2023-01-23T16:07:33.680Z,102189.46
2023-01-23T16:10:02.207Z,102188.88
2023-01-23T16:12:29.848Z,102193.23
2023-01-23T16:14:57.280Z,102192.11
2023-01-23T16:17:24.392Z,102190.11
2023-01-23T16:19:52.186Z,102186.59
2023-01-23T16:22:28.485Z,102190.40
2023-01-23T16:24:56.332Z,102186.19
2023-01-23T16:27:26.764Z,102187.42
2023-01-23T16:29:54.312Z,102191.02
2023-01-23T16:32:21.440Z,102192.11
2023-01-23T16:34:48.907Z,102192.86
2023-01-23T16:37:16.348Z,102191.61
2023-01-23T16:39:46.457Z,102190.64
2023-01-23T16:42:22.149Z,102191.65
2023-01-23T16:44:49.853Z,102195.16
2023-01-23T16:47:17.165Z,102201.34
2023-01-23T16:49:51.943Z,102200.75
2023-01-23T16:52:20.181Z,102206.61
2023-01-23T16:54:47.100Z,102208.66
2023-01-23T16:57:17.721Z,102206.76
2023-01-23T16:59:44.988Z,102207.50
2023-01-23T17:02:29.095Z,102209.29
2023-01-23T17:04:57.514Z,102207.59
2023-01-23T17:07:24.560Z,102208.44
2023-01-23T17:09:51.772Z,102210.14
2023-01-23T17:12:23.709Z,102213.63
2023-01-23T17:14:51.950Z,102212.45
2023-01-23T17:17:29.567Z,102216.45
2023-01-23T17:19:57.207Z,102220.14
2023-01-23T17:22:25.832Z,102222.08
2023-01-23T17:24:52.739Z,102216.83
2023-01-23T17:27:19.999Z,102215.35
2023-01-23T17:29:47.037Z,102220.11
2023-01-23T17:32:38.034Z,102223.42
2023-01-23T17:35:07.966Z,102224.20
2023-01-23T17:38:15.458Z,102219.77
2023-01-23T17:40:42.512Z,102217.17
2023-01-23T21:55:52.807Z,102199.42
2023-01-23T21:58:21.597Z,102196.42
2023-01-23T22:01:21.174Z,102198.64
2023-01-23T22:03:49.429Z,102194.54
2023-01-23T22:06:17.737Z,102192.34
2023-01-23T22:08:45.914Z,102191.08
2023-01-23T22:11:14.162Z,102189.32
2023-01-23T22:13:42.646Z,102191.17
2023-01-23T22:16:12.866Z,102187.18
2023-01-23T22:18:44.118Z,102185.17
2023-01-23T22:21:13.572Z,102190.11
2023-01-23T22:23:41.819Z,102188.24
2023-01-23T22:26:11.715Z,102187.25
2023-01-23T22:28:44.492Z,102193.15
2023-01-23T22:31:15.338Z,102193.63
2023-01-23T22:33:49.095Z,102191.95
2023-01-23T22:36:19.424Z,102186.27
2023-01-23T22:38:55.740Z,102187.23
2023-01-23T22:41:23.955Z,102181.99
2023-01-23T22:43:56.559Z,102185.67
2023-01-23T22:46:25.106Z,102183.65
2023-01-23T22:48:56.174Z,102183.42
2023-01-23T22:51:33.326Z,102185.86
2023-01-23T22:54:03.104Z,102179.15
2023-01-23T22:56:31.470Z,102184.16
2023-01-23T22:59:01.612Z,102186.11
2023-01-23T23:01:37.869Z,102182.39
2023-01-23T23:04:06.260Z,102185.23
2023-01-23T23:06:34.431Z,102190.09
2023-01-23T23:09:05.491Z,102193.39
2023-01-23T23:11:35.415Z,102192.39
2023-01-23T23:14:04.196Z,102195.86
2023-01-23T23:16:32.545Z,102191.11
2023-01-23T23:19:02.060Z,102196.27
2023-01-23T23:21:32.637Z,102191.52
2023-01-23T23:24:02.308Z,102192.69
2023-01-23T23:26:31.906Z,102193.44
2023-01-23T23:29:03.960Z,102194.98
2023-01-23T23:31:32.285Z,102195.22
2023-01-23T23:34:04.589Z,102197.93
2023-01-23T23:36:35.875Z,102197.75
2023-01-23T23:39:06.323Z,102198.08
2023-01-23T23:41:38.322Z,102198.11
2023-01-23T23:44:10.202Z,102195.55
